createdAt,value
2022-12-04T00:00:44.319Z,55.70
2022-12-04T00:03:10.936Z,31.92
2022-12-04T00:05:37.694Z,61.20
2022-12-04T00:08:04.325Z,9.52
2022-12-04T00:10:31.085Z,27.30
2022-12-04T00:12:58.842Z,22.70
2022-12-04T00:15:26.434Z,25.05
2022-12-04T00:17:53.704Z,8.85
2022-12-04T00:20:20.344Z,15.38
2022-12-04T00:22:47.060Z,39.72
2022-12-04T00:25:13.755Z,48.58
2022-12-04T00:27:40.448Z,49.65
2022-12-04T00:30:08.532Z,40.67
2022-12-04T00:32:35.227Z,6.10
2022-12-04T00:35:01.926Z,6.72
2022-12-04T00:37:28.699Z,25.80
2022-12-04T00:39:55.491Z,23.08
2022-12-04T00:42:22.225Z,31.23
2022-12-04T00:44:49.112Z,26.40
2022-12-04T00:47:15.761Z,12.55
2022-12-04T00:49:42.503Z,10.93
2022-12-04T00:52:09.112Z,7.45
2022-12-04T00:54:35.715Z,8.40
2022-12-04T00:57:02.374Z,4.50
2022-12-04T00:59:29.041Z,3.17
2022-12-04T01:01:55.585Z,3.30
2022-12-04T01:04:22.267Z,3.13
2022-12-04T01:06:48.927Z,2.00
2022-12-04T01:09:15.517Z,3.30
2022-12-04T01:11:42.211Z,4.68
2022-12-04T01:14:08.778Z,1.75
2022-12-04T01:16:37.017Z,1.95
2022-12-04T01:19:04.762Z,1.70
2022-12-04T01:21:31.481Z,2.97
2022-12-04T01:23:59.109Z,7.43
2022-12-04T01:26:26.059Z,4.70
2022-12-04T01:28:52.763Z,2.40
2022-12-04T01:31:20.112Z,4.20
2022-12-04T01:33:47.108Z,2.40
2022-12-04T01:36:16.675Z,1.73
2022-12-04T01:38:43.418Z,2.88
2022-12-04T01:41:10.415Z,1.95
2022-12-04T01:43:37.479Z,3.88
2022-12-04T01:46:04.444Z,2.08
2022-12-04T01:48:36.562Z,5.60
2022-12-04T01:51:21.030Z,2.00
2022-12-04T01:56:15.981Z,1.67
2022-12-04T01:58:45.065Z,3.95
2022-12-04T02:01:11.806Z,9.18
2022-12-04T02:03:38.991Z,17.63
2022-12-04T02:06:06.157Z,13.18
2022-12-04T02:08:32.918Z,2.45
2022-12-04T02:11:10.053Z,2.28
2022-12-04T02:13:43.740Z,2.28
2022-12-04T02:16:16.223Z,3.15
2022-12-04T02:18:45.546Z,1.52
2022-12-04T02:21:18.537Z,3.15
2022-12-04T02:24:12.675Z,1.63
2022-12-04T02:27:09.180Z,2.08
2022-12-04T02:29:48.543Z,2.28
2022-12-04T02:32:18.093Z,3.40
2022-12-04T02:34:59.983Z,3.17
2022-12-04T02:37:39.038Z,2.35
2022-12-04T02:40:12.716Z,2.20
2022-12-04T02:42:41.358Z,1.98
2022-12-04T02:45:20.405Z,1.90
2022-12-04T02:47:47.319Z,1.77
2022-12-04T02:50:16.354Z,2.78
2022-12-04T02:52:47.069Z,3.55
2022-12-04T02:55:20.272Z,2.47
2022-12-04T02:57:50.119Z,2.53
2022-12-04T03:00:17.329Z,2.40
2022-12-04T03:02:53.382Z,3.08
2022-12-04T03:05:21.842Z,3.25
2022-12-04T03:07:57.408Z,3.33
2022-12-04T03:10:27.194Z,2.15
2022-12-04T03:12:56.427Z,3.53
2022-12-04T03:15:53.939Z,5.95
2022-12-04T03:18:28.992Z,3.28
2022-12-04T03:20:59.890Z,3.25
2022-12-04T03:23:39.429Z,3.67
2022-12-04T03:26:28.682Z,2.55
2022-12-04T03:29:25.563Z,3.25
2022-12-04T03:32:15.094Z,2.35
2022-12-04T03:34:59.275Z,3.13
2022-12-04T03:37:51.227Z,2.72
2022-12-04T03:40:34.129Z,3.80
2022-12-04T03:43:22.613Z,3.10
2022-12-04T03:46:00.078Z,4.20
2022-12-04T03:48:31.531Z,4.35
2022-12-04T03:51:03.086Z,3.33
2022-12-04T03:53:54.949Z,3.75
2022-12-04T03:56:23.097Z,3.63
2022-12-04T03:59:00.802Z,2.97
2022-12-04T04:01:30.518Z,4.03
2022-12-04T04:03:57.383Z,3.30
2022-12-04T04:06:29.311Z,3.03
2022-12-04T04:08:57.243Z,3.03
2022-12-04T04:11:29.160Z,2.53
2022-12-04T04:14:21.962Z,2.42
2022-12-04T04:17:12.169Z,1.95
2022-12-04T04:19:57.656Z,2.10
2022-12-04T04:22:42.844Z,2.03
2022-12-04T04:25:11.901Z,3.00
2022-12-04T04:27:38.561Z,2.40
2022-12-04T04:30:06.817Z,1.90
2022-12-04T04:32:50.106Z,2.05
2022-12-04T04:35:29.651Z,2.95
2022-12-04T04:38:17.421Z,3.88
2022-12-04T04:41:04.413Z,3.72
2022-12-04T04:43:36.090Z,3.85
2022-12-04T04:46:06.212Z,1.92
2022-12-04T04:48:37.176Z,2.35
2022-12-04T04:51:04.044Z,4.13
2022-12-04T04:53:35.536Z,2.20
2022-12-04T04:56:02.504Z,2.58
2022-12-04T04:58:29.119Z,1.65
2022-12-04T05:00:58.759Z,3.00
2022-12-04T05:03:26.246Z,2.65
2022-12-04T05:05:52.929Z,3.90
2022-12-04T05:08:19.621Z,3.25
2022-12-04T05:10:46.371Z,2.72
2022-12-04T05:13:13.397Z,3.42
2022-12-04T05:15:40.282Z,2.53
2022-12-04T05:18:06.979Z,2.35
2022-12-04T05:20:33.660Z,4.25
2022-12-04T05:23:00.299Z,3.75
2022-12-04T05:25:27.052Z,3.10
2022-12-04T05:27:53.620Z,2.95
2022-12-04T05:30:20.496Z,3.22
2022-12-04T05:32:47.220Z,4.00
2022-12-04T05:35:13.922Z,2.58
2022-12-04T05:37:40.679Z,2.35
2022-12-04T05:40:07.843Z,2.08
2022-12-04T05:42:34.817Z,3.08
2022-12-04T05:45:01.525Z,3.53
2022-12-04T05:47:28.255Z,2.80
2022-12-04T05:49:55.147Z,2.30
2022-12-04T05:52:21.956Z,3.05
2022-12-04T05:54:48.757Z,2.33
2022-12-04T05:57:15.382Z,2.92
2022-12-04T05:59:42.032Z,6.13
2022-12-04T06:02:08.791Z,2.63
2022-12-04T06:04:37.166Z,2.47
2022-12-04T06:07:03.938Z,3.00
2022-12-04T06:09:30.626Z,2.83
2022-12-04T06:11:57.927Z,3.10
2022-12-04T06:14:24.703Z,3.83
2022-12-04T06:16:51.427Z,2.55
2022-12-04T06:19:19.191Z,2.10
2022-12-04T06:21:47.646Z,3.42
2022-12-04T06:24:16.236Z,5.25
2022-12-04T06:27:03.873Z,3.45
2022-12-04T06:29:29.842Z,3.60
2022-12-04T06:31:56.497Z,5.53
2022-12-04T06:34:23.173Z,12.95
2022-12-04T06:36:49.850Z,47.13
2022-12-04T06:39:19.039Z,20.58
2022-12-04T06:41:47.492Z,25.33
2022-12-04T06:44:15.116Z,11.90
2022-12-04T06:46:46.429Z,20.92
2022-12-04T06:49:13.639Z,11.60
2022-12-04T06:51:41.023Z,3.95
2022-12-04T06:54:07.877Z,6.07
2022-12-04T06:56:34.631Z,3.42
2022-12-04T06:59:02.581Z,4.88
2022-12-04T07:01:30.373Z,4.80
2022-12-04T07:03:57.307Z,4.00
2022-12-04T07:06:32.343Z,6.38
2022-12-04T07:09:03.318Z,4.07
2022-12-04T07:11:30.087Z,3.75
2022-12-04T07:13:56.791Z,6.22
2022-12-04T07:16:24.312Z,27.13
2022-12-04T07:18:51.342Z,11.55
2022-12-04T07:21:19.128Z,38.53
2022-12-04T07:23:48.717Z,28.90
2022-12-04T07:26:15.331Z,6.95
2022-12-04T07:28:42.076Z,27.23
2022-12-04T07:31:10.193Z,24.58
2022-12-04T07:33:37.049Z,18.13
2022-12-04T07:36:05.588Z,56.05
2022-12-04T07:38:32.288Z,57.35
2022-12-04T07:40:59.324Z,196.23
2022-12-04T07:43:26.229Z,101.72
2022-12-04T07:45:52.970Z,72.20
2022-12-04T07:48:19.693Z,183.65
2022-12-04T07:50:46.453Z,57.28
2022-12-04T07:53:13.356Z,113.28
2022-12-04T07:55:39.983Z,54.13
2022-12-04T07:58:06.680Z,31.60
2022-12-04T08:00:33.353Z,41.35
2022-12-04T08:03:00.010Z,9.25
2022-12-04T08:05:27.183Z,13.27
2022-12-04T08:07:53.901Z,7.30
2022-12-04T08:10:20.526Z,52.45
2022-12-04T08:12:47.180Z,53.20
2022-12-04T08:15:13.822Z,9.88
2022-12-04T08:17:40.613Z,32.65
2022-12-04T08:20:07.754Z,8.52
2022-12-04T08:22:34.449Z,50.72
2022-12-04T08:25:01.062Z,14.90
2022-12-04T08:27:27.690Z,12.40
2022-12-04T08:29:54.720Z,11.45
2022-12-04T08:32:21.725Z,5.65
2022-12-04T08:34:55.521Z,6.80
2022-12-04T08:37:22.747Z,7.70
2022-12-04T08:39:49.370Z,4.93
2022-12-04T08:42:16.084Z,5.18
2022-12-04T08:44:42.801Z,4.38
2022-12-04T08:47:09.504Z,6.72
2022-12-04T08:49:36.210Z,10.98
2022-12-04T08:52:02.797Z,6.68
2022-12-04T08:54:34.454Z,6.25
2022-12-04T08:57:03.330Z,10.20
2022-12-04T08:59:30.027Z,7.28
2022-12-04T09:01:56.711Z,11.68
2022-12-04T09:04:23.559Z,6.78
2022-12-04T09:06:50.198Z,7.72
2022-12-04T09:09:17.031Z,6.07
2022-12-04T09:11:45.553Z,9.32
2022-12-04T09:14:12.250Z,8.45
2022-12-04T09:16:38.895Z,4.35
2022-12-04T09:19:05.712Z,8.38
2022-12-04T09:21:32.501Z,14.20
2022-12-04T09:23:59.373Z,8.73
2022-12-04T09:26:31.202Z,7.13
2022-12-04T09:28:59.224Z,20.55
2022-12-04T09:31:26.191Z,10.73
2022-12-04T09:33:53.115Z,16.85
2022-12-04T09:36:19.853Z,10.05
2022-12-04T09:38:50.738Z,7.32
2022-12-04T09:41:36.221Z,12.43
2022-12-04T09:44:05.593Z,10.52
2022-12-04T09:46:40.860Z,25.95
2022-12-04T09:49:12.311Z,4.60
2022-12-04T09:51:39.745Z,9.13
2022-12-04T09:54:13.917Z,12.95
2022-12-04T09:56:40.611Z,8.63
2022-12-04T09:59:19.726Z,3.88
2022-12-04T10:02:03.268Z,6.38
2022-12-04T10:04:30.461Z,4.35
2022-12-04T10:07:05.057Z,6.70
2022-12-04T10:09:39.324Z,4.18
2022-12-04T10:12:39.927Z,5.03
2022-12-04T10:15:25.439Z,5.22
2022-12-04T10:18:04.473Z,3.58
2022-12-04T10:20:56.491Z,3.78
2022-12-04T10:23:55.346Z,5.07
2022-12-04T10:26:24.173Z,9.40
2022-12-04T10:28:59.582Z,3.90
2022-12-04T10:31:26.420Z,5.60
2022-12-04T10:33:53.912Z,7.35
2022-12-04T10:36:21.875Z,7.18
2022-12-04T10:38:54.107Z,5.32
2022-12-04T10:41:29.838Z,4.97
2022-12-04T10:43:56.454Z,10.93
2022-12-04T10:46:31.148Z,41.10
2022-12-04T10:49:06.318Z,42.95
2022-12-04T10:51:39.342Z,34.65
2022-12-04T10:54:24.077Z,13.55
2022-12-04T10:56:58.743Z,20.20
2022-12-04T10:59:25.855Z,31.58
2022-12-04T11:02:03.127Z,23.95
2022-12-04T11:04:33.193Z,108.68
2022-12-04T11:07:09.073Z,59.75
2022-12-04T11:09:36.769Z,56.22
2022-12-04T11:12:17.597Z,27.65
2022-12-04T11:14:47.134Z,44.40
2022-12-04T11:17:18.480Z,25.33
2022-12-04T11:19:45.240Z,6.95
2022-12-04T11:22:16.250Z,10.70
2022-12-04T11:24:43.129Z,14.70
2022-12-04T11:27:26.098Z,31.25
2022-12-04T11:29:52.701Z,10.65
2022-12-04T11:32:39.615Z,19.35
2022-12-04T11:35:13.271Z,18.92
2022-12-04T11:37:45.143Z,11.23
2022-12-04T11:40:17.796Z,11.02
2022-12-04T11:42:44.731Z,19.48
2022-12-04T11:45:22.169Z,36.05
2022-12-04T11:48:02.407Z,49.95
2022-12-04T11:50:47.232Z,197.13
2022-12-04T11:53:34.988Z,43.90
2022-12-04T11:56:38.297Z,47.97
2022-12-04T11:59:24.285Z,51.80
2022-12-04T12:02:09.420Z,46.13
2022-12-04T12:04:54.070Z,49.58
2022-12-04T12:07:23.728Z,70.55
2022-12-04T12:10:04.138Z,164.43
2022-12-04T12:12:59.164Z,104.22
2022-12-04T12:15:55.945Z,110.93
2022-12-04T12:18:40.978Z,62.67
2022-12-04T12:21:33.870Z,105.07
2022-12-04T12:24:29.865Z,31.42
2022-12-04T12:27:18.150Z,146.52
2022-12-04T12:30:09.595Z,73.65
2022-12-04T12:32:54.881Z,68.75
2022-12-04T12:35:29.574Z,86.55
2022-12-04T12:38:05.142Z,34.28
2022-12-04T12:40:45.862Z,126.38
2022-12-04T12:43:16.433Z,59.28
2022-12-04T12:45:52.880Z,55.78
2022-12-04T12:48:49.484Z,80.90
2022-12-04T12:51:37.816Z,44.53
2022-12-04T12:54:39.854Z,61.85
2022-12-04T12:57:34.114Z,31.67
2022-12-04T13:00:21.722Z,22.85
2022-12-04T13:03:00.379Z,14.65
2022-12-04T13:05:35.849Z,12.35
2022-12-04T13:08:20.662Z,12.48
2022-12-04T13:11:07.133Z,11.05
2022-12-04T13:13:35.687Z,15.30
2022-12-04T13:16:10.908Z,8.95
2022-12-04T13:19:00.299Z,7.10
2022-12-04T13:21:32.406Z,9.55
2022-12-04T13:24:23.187Z,6.05
2022-12-04T13:26:56.677Z,5.80
2022-12-04T13:29:45.907Z,5.13
2022-12-04T13:32:33.605Z,5.07
2022-12-04T13:35:03.203Z,19.23
2022-12-04T13:38:02.317Z,13.25
2022-12-04T13:40:48.133Z,5.82
2022-12-04T13:43:36.511Z,3.63
2022-12-04T13:46:07.675Z,5.53
2022-12-04T13:48:37.249Z,3.78
2022-12-04T13:51:29.998Z,4.78
2022-12-04T13:54:26.781Z,5.18
2022-12-04T13:56:55.569Z,3.88
2022-12-04T13:59:25.139Z,3.95
2022-12-04T14:01:56.026Z,3.67
2022-12-04T14:04:37.702Z,5.15
2022-12-04T14:07:04.478Z,5.57
2022-12-04T14:09:37.120Z,5.65
2022-12-04T14:12:04.230Z,6.90
2022-12-04T14:14:42.153Z,5.22
2022-12-04T14:17:25.501Z,6.70
2022-12-04T14:19:53.525Z,4.78
2022-12-04T14:22:35.349Z,5.95
2022-12-04T14:25:27.901Z,5.43
2022-12-04T14:27:54.610Z,6.43
2022-12-04T14:30:38.184Z,6.03
2022-12-04T14:33:23.165Z,3.92
2022-12-04T14:35:52.226Z,4.93
2022-12-04T14:38:20.525Z,5.15
2022-12-04T14:40:49.368Z,8.13
2022-12-04T14:43:27.583Z,12.63
2022-12-04T14:46:16.113Z,8.55
2022-12-04T14:48:52.891Z,23.23
2022-12-04T14:51:23.750Z,28.15
2022-12-04T14:53:53.344Z,15.13
2022-12-04T14:56:38.821Z,51.35
2022-12-04T14:59:06.898Z,26.20
2022-12-04T15:01:37.466Z,6.25
2022-12-04T15:04:22.905Z,11.00
2022-12-04T15:06:50.862Z,9.98
2022-12-04T15:09:40.307Z,8.90
2022-12-04T15:12:33.552Z,10.15
2022-12-04T15:15:26.697Z,8.10
2022-12-04T15:18:03.586Z,11.05
2022-12-04T15:20:37.540Z,13.40
2022-12-04T15:23:05.620Z,7.00
2022-12-04T15:25:43.442Z,6.97
2022-12-04T15:28:16.703Z,6.80
2022-12-04T15:30:43.436Z,14.15
2022-12-04T15:33:20.899Z,6.95
2022-12-04T15:35:53.600Z,6.82
2022-12-04T15:38:20.254Z,4.55
2022-12-04T15:40:54.790Z,7.38
2022-12-04T15:43:54.948Z,9.05
2022-12-04T15:46:23.175Z,5.05
2022-12-04T15:48:49.952Z,3.15
2022-12-04T15:51:17.222Z,3.70
2022-12-04T15:53:45.094Z,2.95
2022-12-04T15:56:21.608Z,5.80
2022-12-04T15:58:59.290Z,5.25
2022-12-04T16:01:26.085Z,4.80
2022-12-04T16:03:54.144Z,55.28
2022-12-04T16:06:24.929Z,524.60
2022-12-04T16:08:56.084Z,215.43
2022-12-04T16:11:27.641Z,240.80
2022-12-04T16:14:09.339Z,426.95
2022-12-04T16:16:36.580Z,672.00
2022-12-04T16:19:09.011Z,420.95
2022-12-04T16:21:35.736Z,126.65
2022-12-04T16:24:05.678Z,814.38
2022-12-04T16:26:32.419Z,305.50
2022-12-04T16:28:59.312Z,220.55
2022-12-04T16:31:26.978Z,202.52
2022-12-04T16:33:53.655Z,405.52
2022-12-04T16:36:20.321Z,363.25
2022-12-04T16:38:47.053Z,265.70
2022-12-04T16:41:14.777Z,150.02
2022-12-04T16:43:41.660Z,419.45
2022-12-04T16:46:15.508Z,430.20
2022-12-04T16:48:42.716Z,166.50
2022-12-04T16:51:15.516Z,274.40
2022-12-04T16:53:42.257Z,110.28
2022-12-04T16:56:08.978Z,92.55
2022-12-04T16:58:35.742Z,97.57
2022-12-04T17:01:02.350Z,29.65
2022-12-04T17:03:30.570Z,38.33
2022-12-04T17:05:57.473Z,70.93
2022-12-04T17:08:24.289Z,15.15
2022-12-04T17:10:51.528Z,25.02
2022-12-04T17:13:19.280Z,12.32
2022-12-04T17:15:46.079Z,19.25
2022-12-04T17:18:17.714Z,21.45
2022-12-04T17:20:47.318Z,19.40
2022-12-04T17:23:14.126Z,5.10
2022-12-04T17:25:40.837Z,6.20
2022-12-04T17:28:07.494Z,30.80
2022-12-04T17:30:36.185Z,11.25
2022-12-04T17:33:03.983Z,6.53
2022-12-04T17:35:30.815Z,7.68
2022-12-04T17:38:00.759Z,7.68
2022-12-04T17:40:32.268Z,15.30
2022-12-04T17:42:58.926Z,10.73
2022-12-04T17:45:25.603Z,5.97
2022-12-04T17:47:52.205Z,9.73
2022-12-04T17:50:18.887Z,7.93
2022-12-04T17:52:45.542Z,26.30
2022-12-04T17:55:12.344Z,6.88
2022-12-04T17:57:38.949Z,4.57
2022-12-04T18:00:06.277Z,3.50
2022-12-04T18:02:33.089Z,10.70
2022-12-04T18:04:59.806Z,6.40
2022-12-04T18:07:26.508Z,5.57
2022-12-04T18:09:53.271Z,8.15
2022-12-04T18:12:19.933Z,10.30
2022-12-04T18:14:46.625Z,4.45
2022-12-04T18:17:13.316Z,8.55
2022-12-04T18:19:39.997Z,5.20
2022-12-04T18:22:06.591Z,6.43
2022-12-04T18:24:33.201Z,4.28
2022-12-04T18:26:59.948Z,4.88
2022-12-04T18:29:26.820Z,6.30
2022-12-04T18:31:53.883Z,6.57
2022-12-04T18:34:20.772Z,4.32
2022-12-04T18:36:47.530Z,8.15
2022-12-04T18:39:16.192Z,5.78
2022-12-04T18:41:42.992Z,5.40
2022-12-04T18:44:09.719Z,4.80
2022-12-04T18:46:36.805Z,3.42
2022-12-04T18:49:03.595Z,2.25
2022-12-04T18:51:31.380Z,2.55
2022-12-04T18:54:09.824Z,4.20
2022-12-04T18:56:36.585Z,3.85
2022-12-04T18:59:05.773Z,3.42
2022-12-04T19:01:32.634Z,3.65
2022-12-04T19:04:03.218Z,8.15
2022-12-04T19:06:34.657Z,4.75
2022-12-04T19:09:02.487Z,4.20
2022-12-04T19:11:29.262Z,3.90
2022-12-04T19:13:56.121Z,4.43
2022-12-04T19:16:22.943Z,8.45
2022-12-04T19:18:49.628Z,4.80
2022-12-04T19:21:16.550Z,8.07
2022-12-04T19:23:43.537Z,6.20
2022-12-04T19:26:10.195Z,5.28
2022-12-04T19:28:37.042Z,6.70
2022-12-04T19:31:03.792Z,4.57
2022-12-04T19:33:30.435Z,4.57
2022-12-04T19:35:58.798Z,4.00
2022-12-04T19:38:25.770Z,5.00
2022-12-04T19:41:02.963Z,4.00
2022-12-04T19:43:29.671Z,4.03
2022-12-04T19:45:56.364Z,5.15
2022-12-04T19:48:23.092Z,6.72
2022-12-04T19:50:49.696Z,3.13
2022-12-04T19:53:16.426Z,3.67
2022-12-04T19:55:43.161Z,9.13
2022-12-04T19:58:09.806Z,4.18
2022-12-04T20:00:36.480Z,3.70
2022-12-04T20:03:03.187Z,3.55
2022-12-04T20:05:29.966Z,3.90
2022-12-04T20:10:23.435Z,5.80
2022-12-04T20:12:50.033Z,10.50
2022-12-04T20:15:16.738Z,6.63
2022-12-04T20:17:43.468Z,3.53
2022-12-04T20:20:10.269Z,4.63
2022-12-04T20:22:36.966Z,4.15
2022-12-04T20:25:03.647Z,2.67
2022-12-04T20:27:30.390Z,4.28
2022-12-04T20:29:57.249Z,2.65
2022-12-04T20:32:24.169Z,4.20
2022-12-04T20:34:50.841Z,1.98
2022-12-04T20:37:17.510Z,3.92
2022-12-04T20:39:44.149Z,4.45
2022-12-04T20:42:10.872Z,3.55
2022-12-04T20:44:37.494Z,4.45
2022-12-04T20:47:04.123Z,3.40
2022-12-04T20:49:30.749Z,2.70
2022-12-04T20:51:57.404Z,2.65
2022-12-04T20:54:24.050Z,3.35
2022-12-04T20:56:52.822Z,2.85
2022-12-04T20:59:20.259Z,5.38
2022-12-04T21:01:47.339Z,2.63
2022-12-04T21:04:14.161Z,4.78
2022-12-04T21:06:41.128Z,3.08
2022-12-04T21:09:16.442Z,2.80
2022-12-04T21:11:45.272Z,5.93
2022-12-04T21:14:41.508Z,4.32
2022-12-04T21:17:09.588Z,2.35
2022-12-04T21:19:36.374Z,5.07
2022-12-04T21:22:02.982Z,3.13
2022-12-04T21:24:32.545Z,3.05
2022-12-04T21:26:59.162Z,3.08
2022-12-04T21:29:25.940Z,4.78
2022-12-04T21:31:52.540Z,4.32
2022-12-04T21:34:19.332Z,2.58
2022-12-04T21:36:46.512Z,3.38
2022-12-04T21:39:14.108Z,4.20
2022-12-04T21:41:59.129Z,2.88
2022-12-04T21:44:25.737Z,3.05
2022-12-04T21:46:52.478Z,5.50
2022-12-04T21:49:19.325Z,3.38
2022-12-04T21:51:57.199Z,4.45
2022-12-04T21:54:24.552Z,1.75
2022-12-04T21:56:51.215Z,2.65
2022-12-04T21:59:18.022Z,4.07
2022-12-04T22:01:44.700Z,2.63
2022-12-04T22:04:11.650Z,2.33
2022-12-04T22:06:38.489Z,1.65
2022-12-04T22:09:07.475Z,2.63
2022-12-04T22:11:34.176Z,3.00
2022-12-04T22:14:00.783Z,3.30
2022-12-04T22:16:30.652Z,4.80
2022-12-04T22:18:58.023Z,3.95
2022-12-04T22:21:24.873Z,2.72
2022-12-04T22:23:59.798Z,3.95
2022-12-04T22:26:27.095Z,4.70
2022-12-04T22:28:53.828Z,2.92
2022-12-04T22:31:23.029Z,3.90
2022-12-04T22:33:51.934Z,2.15
2022-12-04T22:36:20.667Z,3.63
2022-12-04T22:39:08.341Z,5.90
2022-12-04T22:41:34.054Z,3.45
2022-12-04T22:44:00.691Z,4.18
2022-12-04T22:46:27.512Z,5.05
2022-12-04T22:48:54.151Z,4.18
2022-12-04T22:51:21.451Z,3.97
2022-12-04T22:53:52.762Z,3.33
2022-12-04T22:56:21.813Z,3.38
2022-12-04T22:58:48.522Z,6.88
2022-12-04T23:01:15.129Z,5.35
2022-12-04T23:03:41.831Z,4.15
2022-12-04T23:06:08.961Z,3.35
2022-12-04T23:08:39.092Z,3.20
2022-12-04T23:11:07.592Z,4.88
2022-12-04T23:13:34.291Z,4.47
2022-12-04T23:16:06.222Z,7.05
2022-12-04T23:18:35.864Z,5.78
2022-12-04T23:21:08.111Z,5.22
2022-12-04T23:23:35.641Z,4.80
2022-12-04T23:26:18.207Z,7.95
2022-12-04T23:28:45.031Z,7.88
2022-12-04T23:31:12.256Z,6.53
2022-12-04T23:33:39.733Z,5.50
2022-12-04T23:36:06.926Z,9.98
2022-12-04T23:38:34.844Z,5.45
2022-12-04T23:41:08.063Z,5.07
2022-12-04T23:43:34.971Z,5.60
2022-12-04T23:46:04.579Z,6.82
2022-12-04T23:51:02.328Z,4.53
2022-12-04T23:53:29.029Z,6.68
2022-12-04T23:56:00.533Z,7.97
2022-12-04T23:58:27.245Z,6.75
